createdAt,value
2018-09-13T05:30:17.371Z,14.20
2018-09-13T05:32:45.628Z,14.20
2018-09-13T05:35:14.040Z,14.20
2018-09-13T05:37:42.258Z,14.20
2018-09-13T05:40:10.506Z,14.20
2018-09-13T05:42:38.724Z,14.20
2018-09-13T05:45:06.968Z,14.20
2018-09-13T05:47:35.187Z,14.20
2018-09-13T05:50:03.436Z,14.30
2018-09-13T05:52:31.668Z,14.30
2018-09-13T05:54:59.906Z,14.30
2018-09-13T05:57:28.137Z,14.40
2018-09-13T05:59:56.375Z,14.40
2018-09-13T06:02:24.596Z,14.40
2018-09-13T06:04:52.836Z,14.40
2018-09-13T06:07:21.056Z,14.50
2018-09-13T06:09:49.304Z,14.50
2018-09-13T06:12:17.544Z,14.50
2018-09-13T06:14:45.805Z,14.60
2018-09-13T06:17:14.036Z,14.60
2018-09-13T06:19:42.360Z,14.60
2018-09-13T06:22:10.553Z,14.70
2018-09-13T06:24:38.840Z,14.70
2018-09-13T06:27:07.073Z,14.80
2018-09-13T06:29:35.451Z,14.80
2018-09-13T06:32:03.660Z,14.80
2018-09-13T06:34:31.903Z,14.90
2018-09-13T06:37:00.132Z,14.90
2018-09-13T06:39:28.392Z,15.00
2018-09-13T06:41:56.611Z,15.00
2018-09-13T06:44:24.856Z,15.10
2018-09-13T06:46:53.096Z,15.10
2018-09-13T06:49:21.325Z,15.30
2018-09-13T06:51:49.566Z,15.40
2018-09-13T06:54:17.875Z,15.50
2018-09-13T06:56:46.081Z,15.50
2018-09-13T06:59:14.315Z,15.50
2018-09-13T07:01:42.567Z,15.50
2018-09-13T07:04:10.788Z,15.50
2018-09-13T07:06:39.056Z,15.40
2018-09-13T07:09:10.080Z,15.30
2018-09-13T07:11:38.304Z,15.30
2018-09-13T07:14:06.536Z,15.20
2018-09-13T07:16:34.848Z,15.20
2018-09-13T07:19:03.084Z,15.10
2018-09-13T07:21:31.330Z,15.10
2018-09-13T07:23:59.580Z,15.10
2018-09-13T07:26:28.016Z,15.10
2018-09-13T07:28:56.239Z,15.20
2018-09-13T07:31:24.490Z,15.20
2018-09-13T07:33:52.712Z,15.20
2018-09-13T07:36:20.972Z,15.20
2018-09-13T07:38:49.195Z,15.30
2018-09-13T07:41:17.427Z,15.30
2018-09-13T07:43:45.675Z,15.20
2018-09-13T07:46:13.915Z,15.20
2018-09-13T07:48:42.139Z,15.10
2018-09-13T07:51:10.384Z,15.10
2018-09-13T07:53:38.696Z,15.00
2018-09-13T07:56:06.928Z,15.00
2018-09-13T07:58:35.152Z,15.00
2018-09-13T08:01:03.400Z,14.80
2018-09-13T08:03:31.620Z,14.80
2018-09-13T08:05:59.876Z,14.90
2018-09-13T08:08:28.124Z,14.70
2018-09-13T08:10:56.388Z,14.60
2018-09-13T08:13:24.615Z,14.50
2018-09-13T08:15:52.876Z,14.40
